Alpharetta, Georgia
Current Conditions -  °F | °C
As of 2:53 AM on Sunday 26 Oct 2014 (Local Time) from KPDK Reporting Station
Clear Clear  
Wind Chill: 16°   Ceiling: Unl
Heat Index: 16°   Visibility: 8mi
Dew Point: 12°   Wind: 5mph
Humidity: 80%   Direction: 300°WNW
Pressure: 30"   Gusts: NA
Location:  34.08°N, 84.29°W
Report Text: KPDK 260653Z 30004KT 8SM CLR 16/12 A3000 RMK AO2 SLP149 T01560122
Loading
Personal Weather Stations






























Interactive Weather Map
Tropical Storm Tracking
New forecast layout! Learn more

10-Day Weather Forecast

Advertisements
Track Severe Weather on mobile